createdAt,value
2023-01-27T00:01:06.074Z,31.45
2023-01-27T00:03:33.833Z,28.50
2023-01-27T00:06:01.653Z,28.75
2023-01-27T00:08:29.836Z,28.02
2023-01-27T00:11:19.741Z,27.15
2023-01-27T00:13:47.006Z,30.85
2023-01-27T00:16:14.676Z,30.23
2023-01-27T00:18:43.836Z,33.47
2023-01-27T00:21:31.124Z,30.48
2023-01-27T00:24:19.371Z,35.42
2023-01-27T00:26:48.126Z,31.45
2023-01-27T00:29:15.327Z,37.47
2023-01-27T00:32:01.388Z,29.98
2023-01-27T00:34:28.806Z,33.67
2023-01-27T00:36:55.838Z,29.27
2023-01-27T00:39:23.088Z,31.33
2023-01-27T00:41:50.329Z,30.10
2023-01-27T00:44:18.105Z,33.58
2023-01-27T00:46:45.837Z,30.35
2023-01-27T00:49:13.617Z,27.05
2023-01-27T00:51:41.220Z,26.25
2023-01-27T00:54:08.836Z,29.15
2023-01-27T00:56:36.784Z,28.77
2023-01-27T00:59:04.950Z,25.95
2023-01-27T01:01:34.216Z,30.63
2023-01-27T01:04:01.857Z,29.58
2023-01-27T01:06:29.361Z,28.83
2023-01-27T01:08:57.768Z,32.38
2023-01-27T01:11:25.299Z,29.98
2023-01-27T01:13:56.400Z,29.17
2023-01-27T01:16:24.836Z,29.60
2023-01-27T01:18:52.755Z,27.95
2023-01-27T01:21:20.285Z,29.42
2023-01-27T01:23:47.804Z,31.63
2023-01-27T01:26:17.025Z,31.08
2023-01-27T01:28:47.343Z,35.25
2023-01-27T01:31:17.691Z,30.52
2023-01-27T01:33:45.305Z,32.58
2023-01-27T01:36:15.648Z,37.25
2023-01-27T01:38:43.032Z,35.35
2023-01-27T01:41:14.906Z,37.00
2023-01-27T01:43:43.557Z,35.15
2023-01-27T01:46:11.933Z,35.55
2023-01-27T01:48:55.004Z,36.47
2023-01-27T01:51:28.767Z,32.83
2023-01-27T01:54:17.128Z,35.03
2023-01-27T01:56:50.099Z,31.27
2023-01-27T01:59:44.541Z,36.90
2023-01-27T02:02:15.852Z,34.83
2023-01-27T02:08:15.818Z,33.60
2023-01-27T02:10:43.390Z,39.08
2023-01-27T02:13:10.745Z,31.92
2023-01-27T02:15:38.986Z,34.50
2023-01-27T02:18:06.789Z,34.80
2023-01-27T02:20:53.393Z,32.03
2023-01-27T02:23:42.302Z,33.13
2023-01-27T02:26:21.591Z,30.48
2023-01-27T02:29:01.234Z,32.13
2023-01-27T02:31:28.740Z,33.30
2023-01-27T02:34:01.264Z,34.83
2023-01-27T02:36:33.062Z,32.95
2023-01-27T02:39:03.516Z,38.83
2023-01-27T02:41:57.926Z,36.00
2023-01-27T02:44:25.768Z,38.07
2023-01-27T02:46:53.397Z,32.30
2023-01-27T02:49:20.872Z,33.45
2023-01-27T02:51:48.252Z,38.33
2023-01-27T02:54:15.476Z,37.80
2023-01-27T02:56:42.853Z,39.40
2023-01-27T02:59:10.210Z,39.90
2023-01-27T03:01:37.720Z,38.05
2023-01-27T03:04:06.078Z,32.42
2023-01-27T03:06:33.402Z,39.25
2023-01-27T03:09:00.659Z,40.17
2023-01-27T03:11:46.484Z,36.58
2023-01-27T03:14:13.808Z,37.40
2023-01-27T03:17:00.849Z,36.80
2023-01-27T03:19:28.058Z,37.30
2023-01-27T03:21:56.197Z,37.22
2023-01-27T03:24:23.802Z,34.88
2023-01-27T03:26:51.366Z,34.35
2023-01-27T03:29:36.875Z,31.45
2023-01-27T03:32:04.490Z,36.00
2023-01-27T03:34:32.132Z,32.53
2023-01-27T03:37:18.386Z,36.22
2023-01-27T03:40:04.382Z,32.15
2023-01-27T03:42:50.172Z,32.60
2023-01-27T03:45:36.101Z,32.80
2023-01-27T03:48:03.544Z,43.00
2023-01-27T03:50:43.407Z,32.00
2023-01-27T03:53:10.816Z,34.00
2023-01-27T03:55:39.246Z,33.45
2023-01-27T03:58:21.221Z,35.42
2023-01-27T04:00:55.525Z,32.08
2023-01-27T04:03:43.889Z,35.28
2023-01-27T04:06:37.128Z,29.88
2023-01-27T04:09:06.701Z,34.65
2023-01-27T04:11:52.809Z,39.65
2023-01-27T04:14:21.925Z,32.53
2023-01-27T04:16:49.478Z,32.38
2023-01-27T04:19:16.671Z,36.50
2023-01-27T04:21:43.896Z,34.30
2023-01-27T04:24:25.050Z,34.63
2023-01-27T04:26:58.647Z,30.45
2023-01-27T04:29:32.621Z,32.53
2023-01-27T04:31:59.890Z,31.08
2023-01-27T04:34:28.177Z,32.47
2023-01-27T04:36:56.726Z,32.20
2023-01-27T04:39:24.031Z,33.63
2023-01-27T04:41:51.764Z,33.88
2023-01-27T04:44:22.042Z,32.08
2023-01-27T04:46:49.922Z,37.00
2023-01-27T04:49:18.453Z,31.98
2023-01-27T04:51:47.071Z,34.78
2023-01-27T04:54:15.431Z,37.38
2023-01-27T04:56:55.210Z,37.35
2023-01-27T04:59:22.820Z,36.80
2023-01-27T05:01:50.742Z,32.63
2023-01-27T05:04:18.041Z,33.53
2023-01-27T05:06:45.369Z,31.88
2023-01-27T05:09:12.928Z,32.33
2023-01-27T05:11:40.621Z,28.25
2023-01-27T05:14:07.748Z,30.67
2023-01-27T05:16:35.144Z,32.63
2023-01-27T05:19:02.652Z,29.98
2023-01-27T05:21:31.154Z,29.33
2023-01-27T05:23:58.528Z,29.88
2023-01-27T05:26:27.883Z,30.33
2023-01-27T05:28:58.065Z,34.70
2023-01-27T05:31:28.901Z,31.23
2023-01-27T05:33:56.865Z,32.75
2023-01-27T05:36:25.351Z,29.58
2023-01-27T05:38:54.664Z,29.88
2023-01-27T05:41:22.704Z,32.17
2023-01-27T05:43:55.177Z,29.70
2023-01-27T05:46:25.514Z,33.92
2023-01-27T05:48:55.620Z,29.45
2023-01-27T05:51:24.894Z,33.50
2023-01-27T05:53:54.194Z,34.72
2023-01-27T05:56:21.721Z,28.02
2023-01-27T05:58:49.131Z,27.70
2023-01-27T06:01:22.305Z,28.92
2023-01-27T06:03:50.764Z,30.13
2023-01-27T06:06:20.503Z,30.33
2023-01-27T06:08:48.851Z,27.38
2023-01-27T06:11:18.236Z,31.85
2023-01-27T06:13:45.883Z,26.15
2023-01-27T06:16:15.565Z,29.80
2023-01-27T06:18:43.125Z,30.38
2023-01-27T06:21:12.401Z,30.50
2023-01-27T06:23:40.401Z,32.78
2023-01-27T06:26:14.687Z,32.13
2023-01-27T06:28:42.224Z,31.00
2023-01-27T06:31:11.015Z,27.08
2023-01-27T06:33:38.709Z,31.70
2023-01-27T06:36:09.263Z,30.25
2023-01-27T06:38:37.180Z,29.23
2023-01-27T06:41:04.747Z,31.05
2023-01-27T06:43:32.164Z,29.27
2023-01-27T06:45:59.612Z,30.23
2023-01-27T06:48:28.125Z,29.02
2023-01-27T06:50:56.718Z,29.85
2023-01-27T06:53:24.485Z,39.17
2023-01-27T06:56:01.717Z,35.60
2023-01-27T06:58:30.135Z,29.33
2023-01-27T07:00:57.439Z,29.27
2023-01-27T07:03:25.212Z,32.28
2023-01-27T07:05:53.885Z,30.70
2023-01-27T07:08:21.647Z,30.42
2023-01-27T07:10:49.242Z,32.28
2023-01-27T07:13:16.755Z,30.75
2023-01-27T07:15:44.152Z,34.03
2023-01-27T07:18:13.710Z,33.22
2023-01-27T07:20:41.958Z,34.55
2023-01-27T07:23:10.182Z,40.30
2023-01-27T07:25:38.029Z,33.25
2023-01-27T07:28:06.213Z,38.85
2023-01-27T07:30:34.321Z,33.40
2023-01-27T07:33:09.346Z,37.47
2023-01-27T07:35:37.387Z,35.65
2023-01-27T07:38:07.442Z,40.10
2023-01-27T07:40:35.826Z,39.17
2023-01-27T07:43:03.239Z,38.50
2023-01-27T07:45:30.988Z,39.70
2023-01-27T07:48:03.535Z,38.33
2023-01-27T07:50:31.085Z,35.55
2023-01-27T07:53:02.739Z,35.78
2023-01-27T07:55:30.744Z,34.95
2023-01-27T07:57:58.159Z,36.42
2023-01-27T08:00:25.573Z,32.53
2023-01-27T08:02:56.459Z,35.05
2023-01-27T08:05:24.665Z,33.40
2023-01-27T08:07:53.943Z,37.63
2023-01-27T08:10:22.266Z,32.67
2023-01-27T08:12:49.463Z,33.15
2023-01-27T08:15:19.019Z,34.22
2023-01-27T08:17:54.571Z,35.17
2023-01-27T08:20:22.351Z,34.30
2023-01-27T08:22:49.487Z,36.03
2023-01-27T08:25:16.861Z,38.25
2023-01-27T08:27:44.185Z,35.40
2023-01-27T08:30:12.502Z,32.55
2023-01-27T08:32:39.818Z,34.42
2023-01-27T08:35:07.082Z,29.95
2023-01-27T08:37:34.422Z,32.75
2023-01-27T08:40:01.867Z,28.58
2023-01-27T08:42:29.211Z,31.88
2023-01-27T08:44:56.745Z,30.75
2023-01-27T08:47:24.160Z,32.15
2023-01-27T08:49:51.313Z,28.23
2023-01-27T08:52:19.134Z,29.42
2023-01-27T08:54:46.482Z,29.83
2023-01-27T08:57:13.633Z,30.30
2023-01-27T08:59:40.907Z,30.52
2023-01-27T09:02:09.392Z,30.08
2023-01-27T09:04:41.317Z,22.67
2023-01-27T09:07:08.532Z,27.88
2023-01-27T09:09:35.992Z,24.33
2023-01-27T09:12:03.493Z,25.38
2023-01-27T09:14:30.626Z,24.10
2023-01-27T09:16:57.876Z,25.65
2023-01-27T09:19:25.148Z,21.58
2023-01-27T09:21:52.366Z,24.67
2023-01-27T09:24:20.567Z,27.73
2023-01-27T09:26:47.866Z,25.77
2023-01-27T09:29:15.229Z,28.05
2023-01-27T09:31:42.649Z,24.52
2023-01-27T09:34:09.909Z,23.98
2023-01-27T09:36:43.851Z,23.08
2023-01-27T09:39:12.767Z,21.85
2023-01-27T09:41:49.413Z,22.98
2023-01-27T09:44:34.431Z,30.42
2023-01-27T09:47:23.822Z,28.75
2023-01-27T09:49:56.753Z,25.02
2023-01-27T09:52:47.267Z,27.33
2023-01-27T09:55:30.039Z,22.20
2023-01-27T09:58:04.738Z,22.20
2023-01-27T10:00:47.594Z,22.02
2023-01-27T10:03:21.051Z,23.90
2023-01-27T10:06:07.952Z,21.80
2023-01-27T10:09:11.236Z,24.20
2023-01-27T10:11:56.611Z,20.33
2023-01-27T10:14:32.820Z,20.42
2023-01-27T10:17:28.481Z,23.88
2023-01-27T10:20:02.130Z,23.13
2023-01-27T10:22:34.850Z,25.17
2023-01-27T10:25:12.726Z,26.40
2023-01-27T10:27:48.493Z,26.65
2023-01-27T10:30:35.011Z,22.80
2023-01-27T10:33:43.766Z,24.73
2023-01-27T10:36:28.717Z,24.42
2023-01-27T10:39:03.728Z,21.13
2023-01-27T10:41:43.879Z,21.50
2023-01-27T10:44:34.351Z,22.88
2023-01-27T10:47:13.506Z,19.17
2023-01-27T10:49:49.605Z,19.77
2023-01-27T10:52:26.808Z,19.15
2023-01-27T10:55:05.726Z,16.85
2023-01-27T10:57:45.611Z,24.45
2023-01-27T11:03:23.313Z,23.27
2023-01-27T11:05:57.847Z,25.70
2023-01-27T11:08:32.880Z,25.70
2023-01-27T11:11:24.074Z,25.10
2023-01-27T11:14:04.081Z,25.08
2023-01-27T11:16:37.084Z,24.00
2023-01-27T11:19:55.891Z,29.92
2023-01-27T11:22:35.092Z,31.52
2023-01-27T11:25:26.861Z,34.75
2023-01-27T11:28:25.356Z,33.45
2023-01-27T11:31:11.791Z,32.47
2023-01-27T11:34:08.239Z,33.08
2023-01-27T11:36:35.510Z,33.05
2023-01-27T11:39:04.799Z,35.88
2023-01-27T11:41:50.821Z,33.95
2023-01-27T11:44:25.887Z,29.65
2023-01-27T11:46:54.896Z,30.35
2023-01-27T11:49:35.528Z,28.52
2023-01-27T11:52:11.936Z,27.30
2023-01-27T11:54:51.467Z,31.20
2023-01-27T11:57:23.122Z,29.33
2023-01-27T12:00:07.391Z,28.42
2023-01-27T12:02:55.317Z,28.15
2023-01-27T12:05:31.414Z,23.60
2023-01-27T12:08:02.064Z,23.13
2023-01-27T12:10:35.233Z,27.52
2023-01-27T12:13:19.762Z,26.55
2023-01-27T12:15:52.760Z,27.08
2023-01-27T12:18:20.655Z,28.63
2023-01-27T12:20:57.659Z,26.77
2023-01-27T12:23:29.714Z,28.17
2023-01-27T12:26:02.827Z,27.85
2023-01-27T12:28:44.286Z,27.50
2023-01-27T12:31:18.070Z,30.20
2023-01-27T12:34:03.558Z,28.00
2023-01-27T12:36:39.103Z,27.00
2023-01-27T12:39:07.983Z,23.40
2023-01-27T12:41:38.379Z,25.85
2023-01-27T12:44:20.934Z,23.60
2023-01-27T12:47:00.678Z,24.35
2023-01-27T12:49:38.205Z,25.85
2023-01-27T12:52:08.670Z,27.70
2023-01-27T12:54:36.489Z,26.95
2023-01-27T12:57:15.695Z,24.45
2023-01-27T13:00:01.378Z,24.60
2023-01-27T13:02:32.795Z,26.75
2023-01-27T13:05:05.946Z,24.02
2023-01-27T13:07:44.708Z,25.42
2023-01-27T13:10:24.758Z,26.95
2023-01-27T13:12:58.054Z,23.02
2023-01-27T13:15:32.079Z,21.45
2023-01-27T13:18:01.530Z,25.23
2023-01-27T13:20:43.647Z,18.83
2023-01-27T13:23:37.887Z,22.05
2023-01-27T13:26:32.142Z,22.05
2023-01-27T13:29:27.262Z,23.35
2023-01-27T13:32:04.337Z,20.50
2023-01-27T13:34:47.422Z,20.85
2023-01-27T13:37:20.389Z,22.92
2023-01-27T13:40:02.595Z,21.95
2023-01-27T13:43:07.361Z,20.73
2023-01-27T13:46:06.361Z,23.97
2023-01-27T13:48:39.245Z,22.40
2023-01-27T13:51:12.774Z,23.40
2023-01-27T13:53:40.825Z,23.20
2023-01-27T13:56:20.209Z,23.85
2023-01-27T13:59:00.695Z,22.50
2023-01-27T14:01:37.492Z,26.30
2023-01-27T14:04:20.312Z,22.92
2023-01-27T14:07:00.776Z,24.75
2023-01-27T14:09:28.750Z,22.55
2023-01-27T14:12:04.093Z,27.42
2023-01-27T14:14:55.995Z,23.90
2023-01-27T14:17:44.187Z,24.42
2023-01-27T14:20:17.813Z,22.30
2023-01-27T14:23:05.910Z,21.55
2023-01-27T14:25:42.585Z,22.75
2023-01-27T14:28:16.435Z,25.50
2023-01-27T14:30:46.393Z,24.30
2023-01-27T14:33:55.435Z,25.15
2023-01-27T14:36:51.574Z,21.67
2023-01-27T14:39:36.920Z,19.63
2023-01-27T14:42:15.847Z,20.02
2023-01-27T14:45:04.517Z,21.85
2023-01-27T14:47:55.277Z,20.13
2023-01-27T14:50:33.742Z,21.35
2023-01-27T14:53:31.853Z,20.02
2023-01-27T14:56:08.558Z,21.40
2023-01-27T14:58:54.092Z,22.58
2023-01-27T15:01:35.374Z,23.13
2023-01-27T15:04:42.488Z,24.85
2023-01-27T15:07:30.358Z,26.05
2023-01-27T15:10:23.686Z,24.42
2023-01-27T15:13:21.123Z,28.08
2023-01-27T15:15:56.285Z,36.33
2023-01-27T15:18:51.388Z,32.63
2023-01-27T15:21:31.626Z,33.55
2023-01-27T15:24:14.280Z,28.27
2023-01-27T15:26:42.165Z,27.98
2023-01-27T15:29:14.984Z,30.65
2023-01-27T15:31:43.246Z,28.42
2023-01-27T15:34:30.821Z,35.25
2023-01-27T15:37:20.955Z,36.53
2023-01-27T15:40:05.279Z,28.65
2023-01-27T15:42:55.588Z,30.35
2023-01-27T15:45:38.075Z,32.60
2023-01-27T15:48:18.092Z,35.45
2023-01-27T15:50:54.460Z,33.65
2023-01-27T15:53:32.042Z,37.83
2023-01-27T15:56:01.905Z,36.63
2023-01-27T15:58:43.716Z,37.88
2023-01-27T16:01:29.373Z,40.03
2023-01-27T16:04:16.443Z,35.60
2023-01-27T16:06:53.995Z,39.15
2023-01-27T16:09:30.426Z,39.42
2023-01-27T16:12:27.180Z,32.03
2023-01-27T16:15:19.942Z,46.90
2023-01-27T16:18:00.955Z,48.92
2023-01-27T16:20:37.804Z,43.88
2023-01-27T16:23:45.243Z,41.90
2023-01-27T16:26:42.577Z,44.40
2023-01-27T16:29:12.981Z,40.67
2023-01-27T16:31:42.438Z,42.60
2023-01-27T16:34:31.738Z,40.63
2023-01-27T16:37:15.139Z,38.60
2023-01-27T16:39:47.637Z,43.20
2023-01-27T16:42:16.846Z,40.90
2023-01-27T16:44:48.655Z,43.45
2023-01-27T16:47:53.173Z,42.20
2023-01-27T16:50:44.334Z,39.08
2023-01-27T16:53:20.797Z,36.72
2023-01-27T16:56:17.248Z,38.63
2023-01-27T16:58:47.769Z,40.20
2023-01-27T17:01:25.381Z,36.97
2023-01-27T17:04:07.819Z,47.85
2023-01-27T17:06:38.626Z,45.25
2023-01-27T17:09:26.774Z,109.00
2023-01-27T17:11:54.301Z,50.30
2023-01-27T17:14:31.913Z,33.33
2023-01-27T17:17:14.044Z,33.10
2023-01-27T17:19:46.353Z,39.60
2023-01-27T17:22:23.452Z,34.28
2023-01-27T17:24:56.550Z,32.95
2023-01-27T17:27:25.212Z,30.63
2023-01-27T17:30:02.903Z,31.63
2023-01-27T17:32:37.869Z,32.33
2023-01-27T17:35:22.574Z,29.48
2023-01-27T17:37:50.519Z,26.58
2023-01-27T17:40:22.547Z,30.80
2023-01-27T17:42:50.594Z,28.63
2023-01-27T17:45:28.973Z,31.50
2023-01-27T17:48:00.313Z,26.35
2023-01-27T17:50:37.275Z,27.40
2023-01-27T17:53:11.265Z,30.25
2023-01-27T17:55:39.524Z,29.35
2023-01-27T17:58:11.983Z,30.15
2023-01-27T18:00:40.709Z,32.25
2023-01-27T18:03:20.252Z,27.25
2023-01-27T18:05:51.249Z,26.90
2023-01-27T18:08:19.804Z,29.98
2023-01-27T18:10:47.365Z,26.80
2023-01-27T18:13:20.389Z,26.75
2023-01-27T18:16:00.386Z,29.48
2023-01-27T18:18:33.689Z,30.08
2023-01-27T18:21:04.754Z,27.58
2023-01-27T18:23:36.067Z,29.00
2023-01-27T18:26:23.449Z,29.60
2023-01-27T18:29:00.689Z,30.88
2023-01-27T18:31:49.650Z,29.35
2023-01-27T18:34:32.769Z,33.88
2023-01-27T18:37:06.230Z,30.50
2023-01-27T18:39:41.335Z,28.25
2023-01-27T18:42:16.746Z,38.97
2023-01-27T18:44:44.060Z,35.35
2023-01-27T18:47:20.630Z,31.15
2023-01-27T18:49:54.152Z,33.22
2023-01-27T18:52:21.828Z,29.75
2023-01-27T18:54:49.643Z,27.88
2023-01-27T18:57:16.848Z,30.40
2023-01-27T18:59:43.994Z,27.45
2023-01-27T19:02:15.909Z,24.42
2023-01-27T19:04:44.135Z,24.67
2023-01-27T19:07:16.299Z,24.15
2023-01-27T19:09:45.643Z,23.73
2023-01-27T19:12:13.438Z,25.27
2023-01-27T19:14:42.102Z,25.83
2023-01-27T19:17:18.011Z,27.08
2023-01-27T19:19:45.208Z,29.77
2023-01-27T19:22:17.140Z,25.08
2023-01-27T19:27:18.893Z,24.98
2023-01-27T19:29:46.007Z,22.05
2023-01-27T19:32:16.068Z,26.42
2023-01-27T19:34:43.368Z,23.00
2023-01-27T19:37:18.680Z,25.63
2023-01-27T19:39:46.728Z,25.45
2023-01-27T19:42:15.462Z,24.15
2023-01-27T19:44:42.796Z,24.23
2023-01-27T19:47:14.254Z,23.67
2023-01-27T19:49:42.082Z,23.23
2023-01-27T19:52:10.117Z,22.40
2023-01-27T19:54:37.710Z,23.13
2023-01-27T19:57:06.044Z,24.88
2023-01-27T19:59:33.291Z,22.20
2023-01-27T20:02:00.565Z,23.75
2023-01-27T20:04:27.962Z,22.02
2023-01-27T20:06:55.303Z,22.40
2023-01-27T20:09:22.346Z,23.25
2023-01-27T20:11:49.680Z,22.92
2023-01-27T20:14:19.277Z,22.10
2023-01-27T20:16:47.227Z,24.20
2023-01-27T20:19:16.883Z,21.58
2023-01-27T20:21:45.734Z,27.10
2023-01-27T20:24:20.085Z,23.50
2023-01-27T20:26:47.589Z,21.52
2023-01-27T20:29:15.365Z,23.38
2023-01-27T20:31:42.940Z,24.02
2023-01-27T20:34:10.374Z,24.70
2023-01-27T20:36:37.650Z,25.25
2023-01-27T20:39:04.745Z,26.52
2023-01-27T20:41:31.917Z,23.15
2023-01-27T20:44:02.629Z,23.73
2023-01-27T20:46:30.517Z,23.55
2023-01-27T20:48:59.544Z,29.52
2023-01-27T20:51:26.907Z,23.90
2023-01-27T20:53:54.659Z,24.17
2023-01-27T20:56:23.704Z,22.80
2023-01-27T20:58:51.853Z,20.88
2023-01-27T21:01:21.994Z,21.63
2023-01-27T21:03:50.679Z,23.38
2023-01-27T21:06:20.081Z,21.80
2023-01-27T21:08:49.339Z,22.10
2023-01-27T21:11:18.841Z,21.33
2023-01-27T21:13:46.369Z,20.13
2023-01-27T21:16:14.881Z,20.58
2023-01-27T21:18:42.262Z,23.73
2023-01-27T21:21:22.501Z,21.92
2023-01-27T21:23:49.838Z,22.75
2023-01-27T21:26:17.234Z,26.58
2023-01-27T21:28:44.464Z,21.65
2023-01-27T21:31:16.431Z,25.10
2023-01-27T21:33:48.541Z,23.40
2023-01-27T21:36:16.440Z,24.05
2023-01-27T21:38:44.204Z,22.05
2023-01-27T21:41:35.032Z,21.33
2023-01-27T21:44:21.031Z,20.45
2023-01-27T21:46:48.630Z,19.40
2023-01-27T21:49:16.714Z,22.58
2023-01-27T21:51:43.848Z,21.10
2023-01-27T21:54:11.197Z,20.77
2023-01-27T21:56:38.298Z,19.88
2023-01-27T21:59:05.693Z,21.35
2023-01-27T22:01:34.765Z,21.30
2023-01-27T22:04:03.961Z,23.90
2023-01-27T22:06:31.353Z,23.85
2023-01-27T22:08:58.488Z,20.25
2023-01-27T22:11:25.855Z,23.08
2023-01-27T22:13:53.191Z,21.00
2023-01-27T22:16:22.012Z,53.50
2023-01-27T22:18:49.279Z,33.40
2023-01-27T22:21:16.717Z,23.10
2023-01-27T22:23:45.232Z,20.10
2023-01-27T22:26:12.940Z,23.90
2023-01-27T22:28:40.331Z,21.17
2023-01-27T22:31:07.938Z,23.05
2023-01-27T22:33:35.794Z,24.25
2023-01-27T22:36:05.961Z,22.95
2023-01-27T22:38:37.842Z,25.98
2023-01-27T22:41:05.284Z,24.67
2023-01-27T22:43:32.594Z,25.35
2023-01-27T22:46:02.486Z,21.92
2023-01-27T22:48:30.958Z,25.85
2023-01-27T22:51:04.035Z,22.58
2023-01-27T22:53:31.858Z,26.08
2023-01-27T22:56:00.608Z,25.27
2023-01-27T22:58:29.208Z,24.08
2023-01-27T23:00:57.088Z,24.52
2023-01-27T23:03:25.087Z,20.73
2023-01-27T23:05:52.887Z,23.42
2023-01-27T23:08:20.965Z,21.65
2023-01-27T23:10:49.315Z,23.30
2023-01-27T23:13:16.996Z,22.60
2023-01-27T23:15:44.370Z,21.65
2023-01-27T23:18:11.925Z,22.40
2023-01-27T23:20:40.924Z,20.95
2023-01-27T23:23:09.243Z,22.30
2023-01-27T23:25:41.314Z,21.23
2023-01-27T23:28:09.009Z,20.48
2023-01-27T23:30:36.473Z,20.02
2023-01-27T23:33:03.970Z,23.92
2023-01-27T23:35:31.376Z,22.48
2023-01-27T23:37:59.056Z,21.58
2023-01-27T23:40:26.288Z,21.75
2023-01-27T23:42:53.724Z,22.60
2023-01-27T23:45:21.028Z,21.08
2023-01-27T23:47:48.401Z,23.70
2023-01-27T23:50:15.943Z,23.50
2023-01-27T23:52:42.961Z,24.38
2023-01-27T23:55:14.122Z,22.42
2023-01-27T23:57:41.750Z,22.75
